Time;durP1;ratioP1;P1;durP2;ratioP2;P2;SDS_P1;SDS_P2;PMS_P1;PMS_P2;Temp;Humidity;BMP_temperature;BMP_pressure;BME280_temperature;BME280_humidity;BME280_pressure;Samples;Min_cycle;Max_cycle;Signal;HPM_P1;HPM_P2
2024/02/17 00:02:21;;;;;;;27.02;10.07;;;9.50;99.90;;;;;;5073130;28;20288;-65
2024/02/17 00:04:47;;;;;;;21.52;9.40;;;9.40;99.90;;;;;;5071584;28;20044;-64
2024/02/17 00:07:13;;;;;;;17.38;9.43;;;9.40;99.90;;;;;;5074502;28;20055;-65
2024/02/17 00:09:39;;;;;;;23.35;9.50;;;9.40;99.90;;;;;;5074732;28;20072;-64
2024/02/17 00:12:06;;;;;;;17.85;8.57;;;9.40;99.90;;;;;;5071061;28;20036;-64
2024/02/17 00:14:34;;;;;;;20.92;9.10;;;9.40;99.90;;;;;;5079916;28;20473;-64
2024/02/17 00:17:04;;;;;;;19.83;7.97;;;9.50;99.90;;;;;;5080120;28;20044;-64
2024/02/17 00:19:30;;;;;;;28.65;10.05;;;9.50;99.90;;;;;;5080043;28;20409;-65
2024/02/17 00:21:56;;;;;;;25.70;7.78;;;9.40;99.90;;;;;;5083404;28;20066;-64
2024/02/17 00:24:22;;;;;;;20.60;9.45;;;9.40;99.90;;;;;;5081597;28;20094;-64
2024/02/17 00:26:48;;;;;;;20.80;8.93;;;9.50;99.90;;;;;;5082347;28;20055;-64
2024/02/17 00:29:18;;;;;;;24.70;8.85;;;9.50;99.90;;;;;;5080485;28;20154;-65
2024/02/17 00:31:46;;;;;;;19.20;8.02;;;9.50;99.90;;;;;;5078074;28;20044;-65
2024/02/17 00:34:13;;;;;;;12.40;6.43;;;9.50;99.90;;;;;;5078030;28;20044;-65
2024/02/17 00:36:39;;;;;;;24.70;8.60;;;9.50;99.90;;;;;;5069967;28;20044;-65
2024/02/17 00:39:05;;;;;;;18.08;7.55;;;9.50;99.90;;;;;;5078526;28;20042;-65
2024/02/17 00:41:31;;;;;;;18.13;7.72;;;9.50;99.90;;;;;;5083029;28;20031;-64
2024/02/17 00:43:57;;;;;;;25.13;8.40;;;9.60;99.90;;;;;;5074251;28;20226;-64
2024/02/17 00:46:23;;;;;;;18.77;7.63;;;9.50;99.90;;;;;;5074826;28;20041;-64
2024/02/17 00:48:49;;;;;;;17.42;6.85;;;9.50;99.90;;;;;;5081460;28;20062;-65
2024/02/17 00:51:15;;;;;;;19.35;8.45;;;9.50;99.90;;;;;;5080841;28;20085;-64
2024/02/17 00:53:45;;;;;;;26.55;7.20;;;9.60;99.90;;;;;;5077942;28;20031;-65
2024/02/17 00:56:13;;;;;;;12.77;6.22;;;9.50;99.90;;;;;;5071636;28;20043;-65
2024/02/17 00:58:39;;;;;;;20.42;7.40;;;9.40;99.90;;;;;;5081544;28;20048;-65
2024/02/17 01:01:05;;;;;;;16.48;7.55;;;9.40;99.90;;;;;;5079411;28;20101;-64
2024/02/17 01:03:31;;;;;;;16.95;7.13;;;9.30;99.90;;;;;;5075005;28;20119;-65
2024/02/17 01:05:57;;;;;;;17.27;7.32;;;9.40;99.90;;;;;;5071747;28;20125;-64
2024/02/17 01:08:22;;;;;;;16.00;7.38;;;9.40;99.90;;;;;;5081766;28;20076;-65
2024/02/17 01:10:48;;;;;;;15.45;8.07;;;9.40;99.90;;;;;;5079348;28;20270;-65
2024/02/17 01:13:15;;;;;;;21.58;7.55;;;9.20;99.90;;;;;;5081898;28;20051;-64
2024/02/17 01:15:41;;;;;;;15.77;7.20;;;9.20;99.90;;;;;;5079812;28;20127;-64
2024/02/17 01:18:07;;;;;;;21.60;8.20;;;9.20;99.90;;;;;;5077713;28;20062;-64
2024/02/17 01:20:33;;;;;;;21.98;7.50;;;9.10;99.90;;;;;;5078120;28;20119;-65
2024/02/17 01:22:59;;;;;;;20.30;8.00;;;9.20;99.90;;;;;;5079490;28;20507;-65
2024/02/17 01:25:25;;;;;;;17.17;7.82;;;9.20;99.90;;;;;;5080248;28;20052;-64
2024/02/17 01:27:52;;;;;;;14.32;6.93;;;9.20;99.90;;;;;;5076670;28;20040;-65
2024/02/17 01:30:18;;;;;;;15.45;7.80;;;9.20;99.90;;;;;;5079141;28;20044;-64
2024/02/17 01:32:44;;;;;;;17.05;7.22;;;9.10;99.90;;;;;;5078409;28;20104;-64
2024/02/17 01:35:10;;;;;;;17.40;7.57;;;9.10;99.90;;;;;;5078529;28;20040;-65
2024/02/17 01:37:35;;;;;;;27.17;7.93;;;9.10;99.90;;;;;;5079346;28;20075;-65
2024/02/17 01:40:01;;;;;;;18.80;7.70;;;9.10;99.90;;;;;;5073180;28;20403;-64
2024/02/17 01:42:27;;;;;;;24.27;9.20;;;9.10;99.90;;;;;;5080000;28;20353;-64
2024/02/17 01:44:53;;;;;;;23.88;7.10;;;9.20;99.90;;;;;;5080545;28;20040;-65
2024/02/17 01:47:21;;;;;;;19.00;8.00;;;9.10;99.90;;;;;;5070704;28;20139;-65
2024/02/17 01:49:47;;;;;;;18.95;7.80;;;9.20;99.90;;;;;;5081928;28;20036;-65
2024/02/17 01:52:14;;;;;;;20.95;8.93;;;9.20;99.90;;;;;;5079542;28;20044;-65
2024/02/17 01:54:40;;;;;;;22.35;8.13;;;9.20;99.90;;;;;;5068607;28;20440;-65
2024/02/17 01:57:06;;;;;;;23.80;8.10;;;9.10;99.90;;;;;;5073800;28;20044;-66
2024/02/17 01:59:32;;;;;;;21.02;8.20;;;9.10;99.90;;;;;;5075900;28;20036;-65
2024/02/17 02:02:00;;;;;;;19.55;8.77;;;9.10;99.90;;;;;;5078461;28;20052;-65
2024/02/17 02:04:25;;;;;;;24.20;8.77;;;9.10;99.90;;;;;;5080329;28;20051;-65
2024/02/17 02:06:51;;;;;;;21.00;8.70;;;9.00;99.90;;;;;;5080338;28;20048;-65
2024/02/17 02:09:23;;;;;;;21.85;8.65;;;9.10;99.90;;;;;;5079037;28;20404;-65
2024/02/17 02:11:51;;;;;;;16.90;7.95;;;9.10;99.90;;;;;;5079247;28;20076;-65
2024/02/17 02:14:18;;;;;;;21.90;9.10;;;9.10;99.90;;;;;;5072700;28;20048;-65
2024/02/17 02:16:44;;;;;;;21.55;8.93;;;9.10;99.90;;;;;;5075739;28;20046;-65
2024/02/17 02:19:11;;;;;;;26.90;8.82;;;9.20;99.90;;;;;;5075614;28;20058;-65
2024/02/17 02:21:40;;;;;;;18.52;8.77;;;9.20;99.90;;;;;;5078603;28;20040;-65
2024/02/17 02:24:07;;;;;;;25.38;9.20;;;9.20;99.90;;;;;;5069865;28;20044;-66
2024/02/17 02:26:33;;;;;;;20.95;8.32;;;9.20;99.90;;;;;;5074728;28;20040;-65
2024/02/17 02:28:59;;;;;;;21.15;8.63;;;9.20;99.90;;;;;;5072801;28;20052;-65
2024/02/17 02:31:25;;;;;;;19.70;8.52;;;9.20;99.90;;;;;;5068532;28;20493;-65
2024/02/17 02:33:52;;;;;;;24.58;8.63;;;9.20;99.90;;;;;;5075887;28;20064;-65
2024/02/17 02:36:20;;;;;;;15.70;8.88;;;9.20;99.90;;;;;;5077361;28;20067;-65
2024/02/17 02:38:46;;;;;;;21.10;8.98;;;9.20;99.90;;;;;;5078220;28;20071;-65
2024/02/17 02:41:12;;;;;;;19.38;8.30;;;9.30;99.90;;;;;;5076333;28;20036;-65
2024/02/17 02:43:38;;;;;;;21.08;8.60;;;9.20;99.90;;;;;;5079979;28;20404;-65
2024/02/17 02:46:05;;;;;;;18.35;7.57;;;9.20;99.90;;;;;;5077954;28;20169;-65
2024/02/17 02:48:31;;;;;;;19.42;7.10;;;9.30;99.90;;;;;;5073796;28;20040;-65
2024/02/17 02:50:58;;;;;;;14.55;6.95;;;9.30;99.90;;;;;;5076454;28;20035;-65
2024/02/17 02:53:24;;;;;;;19.80;7.32;;;9.30;99.90;;;;;;5079535;28;20046;-65
2024/02/17 02:55:50;;;;;;;18.08;7.15;;;9.20;99.90;;;;;;5075962;28;20039;-65
2024/02/17 02:58:15;;;;;;;19.58;7.38;;;9.20;99.90;;;;;;5077331;28;20553;-65
2024/02/17 03:00:41;;;;;;;17.75;6.70;;;9.10;99.90;;;;;;5076463;28;20312;-64
2024/02/17 03:03:07;;;;;;;20.83;7.28;;;9.10;99.90;;;;;;5078577;28;20044;-65
2024/02/17 03:05:33;;;;;;;16.00;6.68;;;9.20;99.90;;;;;;5075993;28;20132;-65
2024/02/17 03:07:58;;;;;;;14.18;7.05;;;9.10;99.90;;;;;;5077439;28;20044;-65
2024/02/17 03:10:24;;;;;;;11.60;5.90;;;9.00;99.90;;;;;;5074237;28;20117;-65
2024/02/17 03:12:50;;;;;;;14.45;5.47;;;9.00;99.90;;;;;;5075598;28;20449;-65
2024/02/17 03:15:16;;;;;;;14.32;5.60;;;9.00;99.90;;;;;;5080421;28;20101;-65
2024/02/17 03:17:41;;;;;;;16.75;6.40;;;9.00;99.90;;;;;;5079253;28;20039;-65
2024/02/17 03:20:08;;;;;;;13.02;6.40;;;9.00;99.90;;;;;;5080747;28;20128;-65
2024/02/17 03:22:34;;;;;;;17.17;6.70;;;9.00;99.90;;;;;;5079046;28;20176;-65
2024/02/17 03:25:00;;;;;;;15.93;6.95;;;8.90;99.90;;;;;;5079666;28;20055;-66
2024/02/17 03:27:27;;;;;;;13.63;6.78;;;8.90;99.90;;;;;;5075028;28;20036;-64
2024/02/17 03:29:53;;;;;;;16.92;6.88;;;9.00;99.90;;;;;;5081891;28;20131;-65
2024/02/17 03:32:19;;;;;;;13.00;6.35;;;8.90;99.90;;;;;;5074178;28;20563;-65
2024/02/17 03:34:44;;;;;;;11.88;5.82;;;8.90;99.90;;;;;;5074774;28;20485;-65
2024/02/17 03:37:10;;;;;;;14.13;6.22;;;8.90;99.90;;;;;;5074664;28;20404;-64
2024/02/17 03:39:37;;;;;;;12.82;5.97;;;8.80;99.90;;;;;;5076605;28;20040;-65
2024/02/17 03:42:03;;;;;;;13.48;6.80;;;8.90;99.90;;;;;;5077788;28;20044;-65
2024/02/17 03:44:29;;;;;;;12.20;5.88;;;8.80;99.90;;;;;;5084371;28;20047;-64
2024/02/17 03:46:55;;;;;;;14.18;6.10;;;8.80;99.90;;;;;;5083518;28;20090;-64
2024/02/17 03:49:22;;;;;;;11.43;6.47;;;8.80;99.90;;;;;;5082729;28;20119;-64
2024/02/17 03:51:48;;;;;;;14.80;7.35;;;8.80;99.90;;;;;;5072568;28;20050;-64
2024/02/17 03:54:14;;;;;;;15.07;6.72;;;8.80;99.90;;;;;;5080702;28;20033;-64
2024/02/17 03:56:40;;;;;;;12.77;6.25;;;8.90;99.90;;;;;;5079041;28;20133;-64
2024/02/17 03:59:06;;;;;;;11.50;6.53;;;8.90;99.90;;;;;;5107472;27;20036;-65
2024/02/17 04:01:36;;;;;;;16.38;7.28;;;8.80;99.90;;;;;;5084332;28;20047;-64
2024/02/17 04:04:05;;;;;;;17.90;6.55;;;8.90;99.90;;;;;;5084485;28;20527;-65
2024/02/17 04:06:31;;;;;;;14.48;6.97;;;8.90;99.90;;;;;;5075008;28;20227;-64
2024/02/17 04:08:58;;;;;;;18.20;6.57;;;8.90;99.90;;;;;;5074644;28;20043;-65
2024/02/17 04:11:27;;;;;;;14.73;6.80;;;8.90;99.90;;;;;;5080062;28;20036;-64
2024/02/17 04:13:55;;;;;;;15.23;6.57;;;8.80;99.90;;;;;;5083999;28;20043;-64
2024/02/17 04:16:20;;;;;;;17.67;6.47;;;8.90;99.90;;;;;;5079612;28;20082;-64
2024/02/17 04:18:49;;;;;;;14.32;6.90;;;8.80;99.90;;;;;;5081369;28;20412;-64
2024/02/17 04:21:15;;;;;;;16.57;6.53;;;9.10;99.90;;;;;;5084905;28;20051;-65
2024/02/17 04:23:43;;;;;;;12.02;6.20;;;8.80;99.90;;;;;;5071505;28;20552;-64
2024/02/17 04:26:09;;;;;;;15.73;6.57;;;8.90;99.90;;;;;;5084708;28;20086;-64
2024/02/17 04:28:36;;;;;;;12.65;5.40;;;8.90;99.90;;;;;;5083121;28;20155;-65
2024/02/17 04:31:06;;;;;;;14.40;6.85;;;8.90;99.90;;;;;;5083012;28;20036;-64
2024/02/17 04:33:31;;;;;;;13.10;6.13;;;8.90;99.90;;;;;;5080140;28;20055;-64
2024/02/17 04:35:57;;;;;;;15.02;5.63;;;8.90;99.90;;;;;;5082066;28;20035;-64
2024/02/17 04:38:23;;;;;;;9.35;5.72;;;8.90;99.90;;;;;;5080307;28;20493;-64
2024/02/17 04:40:49;;;;;;;9.50;4.28;;;8.90;99.90;;;;;;5072907;28;20040;-64
2024/02/17 04:43:15;;;;;;;8.93;4.25;;;8.90;99.90;;;;;;5082928;28;20032;-65
2024/02/17 04:45:41;;;;;;;12.60;4.18;;;8.90;99.90;;;;;;5079728;28;20040;-65
2024/02/17 04:48:07;;;;;;;5.20;2.67;;;8.90;99.90;;;;;;5075466;28;20043;-64
2024/02/17 04:50:32;;;;;;;4.22;2.10;;;8.80;99.90;;;;;;5083043;28;20079;-65
2024/02/17 04:52:58;;;;;;;4.00;1.80;;;8.80;99.90;;;;;;5081031;28;20346;-64
2024/02/17 04:55:26;;;;;;;9.38;1.83;;;8.70;99.90;;;;;;5084570;28;20394;-64
2024/02/17 04:57:52;;;;;;;5.07;1.67;;;8.70;99.90;;;;;;5084104;28;20538;-64
2024/02/17 05:00:20;;;;;;;8.48;1.73;;;8.70;99.90;;;;;;5079471;28;20051;-65
2024/02/17 05:02:45;;;;;;;2.72;1.38;;;8.60;99.90;;;;;;5078747;28;20512;-64
2024/02/17 05:05:15;;;;;;;2.78;1.50;;;8.60;99.90;;;;;;5079919;28;20078;-64
2024/02/17 05:07:41;;;;;;;5.82;1.52;;;8.70;99.90;;;;;;5082724;28;20079;-64
2024/02/17 05:10:07;;;;;;;3.97;1.27;;;8.60;99.90;;;;;;5081633;28;20509;-64
2024/02/17 05:12:33;;;;;;;5.38;1.10;;;8.50;99.90;;;;;;5082840;28;20569;-65
2024/02/17 05:14:59;;;;;;;3.78;1.38;;;8.60;99.90;;;;;;5079945;28;20040;-64
2024/02/17 05:17:26;;;;;;;4.78;1.20;;;8.50;99.90;;;;;;5081114;28;20040;-64
2024/02/17 05:19:52;;;;;;;7.53;1.73;;;8.40;99.90;;;;;;5078659;28;20101;-64
2024/02/17 05:22:18;;;;;;;4.45;1.85;;;8.50;99.90;;;;;;5076842;28;20052;-64
2024/02/17 05:24:44;;;;;;;2.28;1.10;;;8.50;99.90;;;;;;5079918;28;20500;-64
2024/02/17 05:27:10;;;;;;;4.85;1.40;;;8.40;99.90;;;;;;5077250;28;20044;-64
2024/02/17 05:29:38;;;;;;;2.80;0.90;;;8.40;99.90;;;;;;5082681;28;20123;-64
2024/02/17 05:32:04;;;;;;;1.50;1.05;;;8.50;99.90;;;;;;5067930;28;20032;-65
2024/02/17 05:34:29;;;;;;;4.68;1.33;;;8.50;99.90;;;;;;5080836;28;20051;-64
2024/02/17 05:36:56;;;;;;;4.32;1.42;;;8.40;99.90;;;;;;5078170;28;20040;-65
2024/02/17 05:39:23;;;;;;;5.35;1.52;;;8.30;99.90;;;;;;5078603;28;20132;-65
2024/02/17 05:41:50;;;;;;;4.75;1.55;;;8.30;99.90;;;;;;5082417;28;20043;-65
2024/02/17 05:44:16;;;;;;;3.20;1.10;;;8.30;99.90;;;;;;5082531;28;20267;-64
2024/02/17 05:46:42;;;;;;;5.68;1.30;;;8.20;99.90;;;;;;5074273;28;20042;-65
2024/02/17 05:49:09;;;;;;;4.35;1.20;;;8.20;99.90;;;;;;5078452;28;20448;-65
2024/02/17 05:51:35;;;;;;;1.77;0.73;;;8.20;99.90;;;;;;5068899;28;20036;-64
2024/02/17 05:54:01;;;;;;;1.92;0.60;;;8.10;99.90;;;;;;5078579;28;20063;-64
2024/02/17 05:56:26;;;;;;;0.63;0.63;;;8.10;99.90;;;;;;5072959;28;20134;-64
2024/02/17 05:58:53;;;;;;;3.63;1.05;;;8.10;99.90;;;;;;5076594;28;20039;-64
2024/02/17 06:01:19;;;;;;;1.83;0.52;;;8.10;99.90;;;;;;5074294;28;20047;-64
2024/02/17 06:03:44;;;;;;;1.55;0.70;;;8.10;99.90;;;;;;5076152;28;20036;-64
2024/02/17 06:06:10;;;;;;;4.10;0.90;;;8.20;99.90;;;;;;5078204;28;20055;-64
2024/02/17 06:08:36;;;;;;;4.32;0.85;;;8.10;99.90;;;;;;5076096;28;20038;-64
2024/02/17 06:11:02;;;;;;;3.03;1.17;;;8.20;99.90;;;;;;5076297;28;20040;-64
2024/02/17 06:13:28;;;;;;;4.63;1.00;;;8.10;99.90;;;;;;5078225;28;20592;-64
2024/02/17 06:15:55;;;;;;;7.88;1.20;;;8.10;99.90;;;;;;5077701;28;20526;-64
2024/02/17 06:21:11;;;;;;;5.07;1.10;;;8.20;99.90;;;;;;5076384;28;20697;-64
2024/02/17 06:23:41;;;;;;;4.70;1.40;;;8.10;99.90;;;;;;5077174;28;20047;-64
2024/02/17 06:26:26;;;;;;;7.35;1.15;;;8.00;99.90;;;;;;5076325;28;20045;-64
2024/02/17 06:28:53;;;;;;;6.28;1.45;;;8.10;99.90;;;;;;5073688;28;20036;-64
2024/02/17 06:31:20;;;;;;;7.03;1.30;;;8.10;99.90;;;;;;5076243;28;20063;-65
2024/02/17 06:33:45;;;;;;;6.70;1.50;;;8.10;99.90;;;;;;5074886;28;20154;-64
2024/02/17 06:36:11;;;;;;;4.93;1.40;;;8.00;99.90;;;;;;5074460;28;20154;-65
2024/02/17 06:38:37;;;;;;;8.52;1.65;;;8.10;99.90;;;;;;5076847;28;20040;-65
2024/02/17 06:41:03;;;;;;;8.48;1.55;;;8.10;99.90;;;;;;5076865;28;20039;-65
2024/02/17 06:43:30;;;;;;;7.63;1.60;;;8.10;99.90;;;;;;5078424;28;20136;-65
2024/02/17 06:45:58;;;;;;;10.48;2.33;;;8.20;99.90;;;;;;5074550;28;20050;-65
2024/02/17 06:48:27;;;;;;;8.38;2.05;;;8.10;99.90;;;;;;5075332;28;20043;-65
2024/02/17 06:50:53;;;;;;;3.70;1.33;;;8.10;99.90;;;;;;5072622;28;20043;-65
2024/02/17 06:53:19;;;;;;;6.93;1.85;;;8.10;99.90;;;;;;5075575;28;20447;-65
2024/02/17 06:55:45;;;;;;;4.55;1.70;;;8.00;99.90;;;;;;5075333;28;20059;-65
2024/02/17 06:58:12;;;;;;;3.45;1.00;;;7.90;99.90;;;;;;5075329;28;20047;-64
2024/02/17 07:00:37;;;;;;;3.80;0.70;;;7.90;99.90;;;;;;5072112;28;20028;-65
2024/02/17 07:03:04;;;;;;;2.08;1.00;;;7.90;99.90;;;;;;5076089;28;20050;-65
2024/02/17 07:05:34;;;;;;;6.07;1.00;;;8.00;99.90;;;;;;5074774;28;20055;-65
2024/02/17 07:08:00;;;;;;;5.00;1.00;;;7.90;99.90;;;;;;5069944;28;20495;-65
2024/02/17 07:10:26;;;;;;;6.25;1.00;;;7.90;99.90;;;;;;5072981;28;20040;-65
2024/02/17 07:12:52;;;;;;;6.07;1.02;;;7.90;99.90;;;;;;5050191;28;20087;-65
2024/02/17 07:15:18;;;;;;;5.88;1.10;;;8.00;99.90;;;;;;5074245;28;20511;-65
2024/02/17 07:17:44;;;;;;;4.22;1.13;;;7.90;99.90;;;;;;5076262;28;20036;-65
2024/02/17 07:20:10;;;;;;;6.13;1.27;;;7.90;99.90;;;;;;5059737;28;20605;-65
2024/02/17 07:22:36;;;;;;;5.03;1.27;;;8.20;99.90;;;;;;5080963;28;20161;-65
2024/02/17 07:25:03;;;;;;;3.35;1.10;;;7.90;99.90;;;;;;5079109;28;20105;-65
2024/02/17 07:27:29;;;;;;;4.72;1.35;;;7.90;99.90;;;;;;5077839;28;20139;-63
2024/02/17 07:29:55;;;;;;;4.70;1.60;;;7.90;99.90;;;;;;5079764;28;20024;-64
2024/02/17 07:32:23;;;;;;;6.32;2.03;;;8.00;99.90;;;;;;5079775;28;20078;-64
2024/02/17 07:34:51;;;;;;;5.70;1.90;;;8.00;99.90;;;;;;5079495;28;20558;-64
2024/02/17 07:37:20;;;;;;;6.28;1.70;;;8.00;99.90;;;;;;5078274;28;20076;-64
2024/02/17 07:39:46;;;;;;;3.63;1.63;;;8.00;99.90;;;;;;5079701;28;20072;-64
2024/02/17 07:42:12;;;;;;;7.90;1.40;;;7.90;99.90;;;;;;5079535;28;20488;-64
2024/02/17 07:44:42;;;;;;;7.90;1.75;;;7.90;99.90;;;;;;5074461;28;20043;-64
2024/02/17 07:47:07;;;;;;;7.78;1.63;;;7.90;99.90;;;;;;5079795;28;20102;-64
2024/02/17 07:49:33;;;;;;;9.70;2.00;;;7.90;99.90;;;;;;5080182;28;20049;-64
2024/02/17 07:51:59;;;;;;;6.07;1.27;;;7.90;99.90;;;;;;5078996;28;20054;-64
2024/02/17 07:54:25;;;;;;;3.97;1.15;;;7.90;99.90;;;;;;5080101;28;20062;-63
2024/02/17 07:56:51;;;;;;;3.20;1.20;;;7.90;99.90;;;;;;5080441;28;20062;-64
2024/02/17 07:59:17;;;;;;;7.55;1.50;;;7.90;99.90;;;;;;5079687;28;20079;-65
2024/02/17 08:01:43;;;;;;;4.88;1.20;;;7.90;99.90;;;;;;5077422;28;20032;-64
2024/02/17 08:04:09;;;;;;;3.30;0.80;;;8.00;99.90;;;;;;5080968;28;20618;-65
2024/02/17 08:06:34;;;;;;;4.93;1.02;;;7.90;99.90;;;;;;5079229;28;20402;-63
2024/02/17 08:09:00;;;;;;;3.28;1.10;;;7.80;99.90;;;;;;5079158;28;20036;-64
2024/02/17 08:11:26;;;;;;;5.07;1.02;;;7.80;99.90;;;;;;5077524;28;20412;-64
2024/02/17 08:13:52;;;;;;;7.72;1.15;;;7.80;99.90;;;;;;5078068;28;20044;-64
2024/02/17 08:16:17;;;;;;;5.47;0.85;;;7.80;99.90;;;;;;5079868;28;20046;-64
2024/02/17 08:18:44;;;;;;;2.80;0.60;;;7.90;99.90;;;;;;5079563;28;20040;-64
2024/02/17 08:21:10;;;;;;;7.47;0.82;;;8.20;99.90;;;;;;5080690;28;20048;-63
2024/02/17 08:23:36;;;;;;;6.45;1.30;;;8.30;99.90;;;;;;5078082;28;20040;-64
2024/02/17 08:26:02;;;;;;;4.03;0.73;;;8.50;99.90;;;;;;5078471;28;20043;-64
2024/02/17 08:28:28;;;;;;;4.28;0.90;;;8.80;99.90;;;;;;5077613;28;20044;-64
2024/02/17 08:30:54;;;;;;;2.83;0.80;;;8.80;99.90;;;;;;5080337;28;20508;-63
2024/02/17 08:33:20;;;;;;;6.25;1.08;;;8.90;99.90;;;;;;5079292;28;20090;-64
2024/02/17 08:35:45;;;;;;;3.78;0.80;;;9.20;99.90;;;;;;5080845;28;20055;-64
2024/02/17 08:38:12;;;;;;;5.78;1.05;;;9.40;99.90;;;;;;5077588;28;20046;-64
2024/02/17 08:40:38;;;;;;;4.35;0.80;;;9.80;99.90;;;;;;5078574;28;20660;-63
2024/02/17 08:43:05;;;;;;;4.90;1.00;;;10.10;99.90;;;;;;5075009;28;20040;-63
2024/02/17 08:45:31;;;;;;;6.18;0.90;;;10.40;99.90;;;;;;5078177;28;20516;-64
2024/02/17 08:47:57;;;;;;;6.07;1.20;;;10.60;99.90;;;;;;5078098;28;20046;-64
2024/02/17 08:50:23;;;;;;;2.72;0.60;;;10.90;99.90;;;;;;5080676;28;20039;-64
2024/02/17 08:52:49;;;;;;;3.67;0.88;;;10.80;99.90;;;;;;5079144;28;20043;-64
2024/02/17 08:55:15;;;;;;;5.07;1.30;;;10.70;99.90;;;;;;5079367;28;20473;-64
2024/02/17 08:57:41;;;;;;;4.97;0.82;;;11.00;99.90;;;;;;5078992;28;20427;-64
2024/02/17 09:00:11;;;;;;;7.05;1.20;;;11.30;99.90;;;;;;5076960;28;20619;-64
2024/02/17 09:02:36;;;;;;;3.80;0.75;;;11.70;99.90;;;;;;5079441;28;20074;-64
2024/02/17 09:05:04;;;;;;;5.78;1.23;;;12.00;99.90;;;;;;5078125;28;20112;-64
2024/02/17 09:07:30;;;;;;;2.78;0.90;;;11.90;99.90;;;;;;5076177;28;20044;-64
2024/02/17 09:09:56;;;;;;;5.57;0.90;;;12.10;99.90;;;;;;5077826;28;20415;-65
2024/02/17 09:12:22;;;;;;;3.55;0.90;;;12.40;99.90;;;;;;5079348;28;20036;-63
2024/02/17 09:14:48;;;;;;;3.33;1.00;;;12.70;99.90;;;;;;5078076;28;20159;-61
2024/02/17 09:17:14;;;;;;;4.40;0.82;;;12.70;99.90;;;;;;5077844;28;20044;-62
2024/02/17 09:19:40;;;;;;;3.33;1.08;;;12.60;99.90;;;;;;5074834;28;20040;-64
2024/02/17 09:22:06;;;;;;;5.10;0.70;;;12.60;99.90;;;;;;5079313;28;20043;-63
2024/02/17 09:24:32;;;;;;;5.22;0.85;;;12.40;99.90;;;;;;5078986;28;20055;-62
2024/02/17 09:27:01;;;;;;;4.53;0.88;;;12.40;99.90;;;;;;5078031;28;20769;-63
2024/02/17 09:29:27;;;;;;;4.55;1.23;;;12.20;99.90;;;;;;5076045;28;20041;-63
2024/02/17 09:31:53;;;;;;;2.17;0.82;;;12.10;99.90;;;;;;5077780;28;20036;-64
2024/02/17 09:34:19;;;;;;;4.47;0.90;;;11.90;99.90;;;;;;5076965;28;20036;-63
2024/02/17 09:36:45;;;;;;;6.22;1.30;;;11.80;99.90;;;;;;5080154;28;20031;-63
2024/02/17 09:39:11;;;;;;;5.28;1.35;;;11.70;99.90;;;;;;5077184;28;20583;-63
2024/02/17 09:41:37;;;;;;;3.75;0.70;;;11.70;99.90;;;;;;5078432;28;20940;-63
2024/02/17 09:44:03;;;;;;;2.10;0.77;;;11.50;99.90;;;;;;5079452;28;20065;-63
2024/02/17 09:46:29;;;;;;;4.32;0.85;;;11.40;99.90;;;;;;5078666;28;20044;-63
2024/02/17 09:48:59;;;;;;;5.60;1.15;;;11.20;99.90;;;;;;5078909;28;20458;-63
2024/02/17 09:51:25;;;;;;;4.40;1.00;;;11.00;99.90;;;;;;5076413;28;20650;-63
2024/02/17 09:53:53;;;;;;;8.45;1.52;;;10.90;99.90;;;;;;5078071;28;20028;-63
2024/02/17 09:56:19;;;;;;;5.05;1.30;;;11.00;99.90;;;;;;5078059;28;20067;-63
2024/02/17 09:58:45;;;;;;;2.67;0.95;;;11.00;99.90;;;;;;5077951;28;20040;-63
2024/02/17 10:01:11;;;;;;;7.72;1.30;;;11.20;99.90;;;;;;5075834;28;20088;-63
2024/02/17 10:03:40;;;;;;;4.90;1.00;;;11.20;99.90;;;;;;5078567;28;20122;-63
2024/02/17 10:06:14;;;;;;;4.75;1.17;;;11.20;99.90;;;;;;5076994;28;20074;-63
2024/02/17 10:08:41;;;;;;;5.10;1.20;;;11.40;99.90;;;;;;5076768;28;20111;-63
2024/02/17 10:11:15;;;;;;;6.53;1.25;;;11.40;99.90;;;;;;5146698;27;20438;-63
2024/02/17 10:13:42;;;;;;;6.57;1.20;;;11.80;99.90;;;;;;5145981;27;20047;-64
2024/02/17 10:16:11;;;;;;;6.30;1.30;;;12.00;99.90;;;;;;5145057;27;20039;-64
2024/02/17 10:18:40;;;;;;;7.95;1.27;;;12.00;99.90;;;;;;5146750;27;20038;-64
2024/02/17 10:21:07;;;;;;;10.43;1.98;;;11.90;99.90;;;;;;5144416;27;20501;-63
2024/02/17 10:23:33;;;;;;;6.47;1.17;;;11.90;99.90;;;;;;5145302;27;20047;-64
2024/02/17 10:25:58;;;;;;;8.32;1.50;;;12.20;99.90;;;;;;5145381;27;20035;-64
2024/02/17 10:28:26;;;;;;;8.23;1.80;;;12.30;99.90;;;;;;5144449;27;20044;-63
2024/02/17 10:30:52;;;;;;;12.95;1.65;;;12.40;99.90;;;;;;5146166;27;20039;-64
2024/02/17 10:33:18;;;;;;;7.85;1.70;;;12.60;99.90;;;;;;5143260;27;20030;-64
2024/02/17 10:35:48;;;;;;;11.27;2.65;;;12.80;99.90;;;;;;5142911;27;20064;-64
2024/02/17 10:38:15;;;;;;;5.75;1.20;;;12.80;99.90;;;;;;5144197;27;20035;-63
2024/02/17 10:40:42;;;;;;;7.28;1.50;;;12.80;99.90;;;;;;5144129;27;20048;-63
2024/02/17 10:43:08;;;;;;;11.18;2.05;;;13.00;99.90;;;;;;5145111;27;20771;-63
2024/02/17 10:45:34;;;;;;;5.88;1.25;;;13.10;99.90;;;;;;5146889;27;20043;-63
2024/02/17 10:48:05;;;;;;;8.35;1.38;;;13.10;99.90;;;;;;5145242;27;20042;-63
2024/02/17 10:50:34;;;;;;;5.57;1.50;;;13.10;99.90;;;;;;5143485;27;20176;-63
2024/02/17 10:53:30;;;;;;;9.15;1.60;;;13.00;99.90;;;;;;5142340;27;20027;-63
2024/02/17 10:55:59;;;;;;;7.25;1.73;;;13.30;99.90;;;;;;5144078;27;20049;-63
2024/02/17 10:58:25;;;;;;;10.95;1.88;;;13.30;99.90;;;;;;5146302;27;20122;-63
2024/02/17 11:00:52;;;;;;;6.55;1.63;;;13.30;99.90;;;;;;5141596;27;20525;-63
2024/02/17 11:03:25;;;;;;;6.20;1.80;;;13.50;99.90;;;;;;5145374;27;20070;-63
2024/02/17 11:05:55;;;;;;;9.30;1.92;;;13.80;99.90;;;;;;5145385;27;20467;-63
2024/02/17 11:08:22;;;;;;;7.93;1.80;;;13.70;99.90;;;;;;5142796;27;20041;-63
2024/02/17 11:10:47;;;;;;;7.90;1.67;;;13.70;99.90;;;;;;5144837;27;20545;-63
2024/02/17 11:13:24;;;;;;;12.43;1.85;;;13.90;99.90;;;;;;5142743;27;20035;-63
2024/02/17 11:16:04;;;;;;;6.95;1.25;;;14.00;99.90;;;;;;5145314;27;20045;-63
2024/02/17 11:18:37;;;;;;;6.97;1.50;;;13.90;99.90;;;;;;5143202;27;20046;-63
2024/02/17 11:21:04;;;;;;;7.63;1.48;;;13.90;99.90;;;;;;5138408;27;20513;-63
2024/02/17 11:23:33;;;;;;;10.43;1.67;;;13.90;99.90;;;;;;5127768;27;20568;-63
2024/02/17 11:26:00;;;;;;;8.40;2.08;;;13.90;99.90;;;;;;5129333;27;20034;-63
2024/02/17 11:28:26;;;;;;;12.15;2.13;;;14.00;99.90;;;;;;5129545;27;20554;-62
2024/02/17 11:30:58;;;;;;;9.25;2.10;;;14.10;99.90;;;;;;5130254;27;20087;-63
2024/02/17 11:33:30;;;;;;;17.40;2.47;;;14.10;99.90;;;;;;5127503;27;20588;-63
2024/02/17 11:35:57;;;;;;;10.63;2.20;;;14.20;99.90;;;;;;5130243;27;20043;-63
2024/02/17 11:38:25;;;;;;;9.57;2.22;;;14.50;99.90;;;;;;5127703;27;20509;-63
2024/02/17 11:41:00;;;;;;;11.25;1.73;;;14.60;99.90;;;;;;5129070;27;20043;-62
2024/02/17 11:43:31;;;;;;;9.23;1.90;;;14.70;99.90;;;;;;5125902;27;20055;-64
2024/02/17 11:45:58;;;;;;;10.90;1.70;;;14.70;99.90;;;;;;5131437;27;20042;-64
2024/02/17 11:48:31;;;;;;;8.73;1.92;;;14.70;99.90;;;;;;5127591;27;20091;-64
2024/02/17 11:51:06;;;;;;;4.82;1.10;;;14.50;99.90;;;;;;5129449;27;20042;-64
2024/02/17 11:53:33;;;;;;;8.38;1.63;;;14.40;99.90;;;;;;5126409;27;20585;-64
2024/02/17 11:56:00;;;;;;;6.28;1.27;;;14.50;99.90;;;;;;5130550;27;20039;-64
2024/02/17 11:58:26;;;;;;;5.72;1.20;;;14.50;99.90;;;;;;5127818;27;20198;-64
2024/02/17 12:00:56;;;;;;;8.77;1.70;;;14.50;99.90;;;;;;5128840;27;20286;-64
2024/02/17 12:03:26;;;;;;;9.25;1.98;;;14.60;99.90;;;;;;5128413;27;20545;-64
2024/02/17 12:05:52;;;;;;;9.45;2.15;;;14.80;99.90;;;;;;5129139;27;20453;-64
2024/02/17 12:08:18;;;;;;;5.75;1.70;;;14.80;99.90;;;;;;5128223;27;20039;-63
2024/02/17 12:10:46;;;;;;;8.45;1.42;;;15.00;99.90;;;;;;5130459;27;20027;-64
2024/02/17 12:13:12;;;;;;;11.60;2.53;;;15.00;99.90;;;;;;5128982;27;20035;-64
2024/02/17 12:15:38;;;;;;;4.95;1.40;;;15.10;99.90;;;;;;5130531;27;20034;-64
2024/02/17 12:18:04;;;;;;;6.47;1.35;;;15.30;99.90;;;;;;5131648;27;20409;-64
2024/02/17 12:20:31;;;;;;;10.48;1.98;;;15.00;99.90;;;;;;5128589;27;20039;-64
2024/02/17 12:22:58;;;;;;;6.40;1.40;;;15.30;99.90;;;;;;5129254;27;20090;-64
2024/02/17 12:25:25;;;;;;;5.80;1.50;;;15.30;99.90;;;;;;5124628;27;20043;-64
2024/02/17 12:27:52;;;;;;;9.32;1.80;;;15.20;99.90;;;;;;5127906;27;20414;-64
2024/02/17 12:30:18;;;;;;;5.38;1.67;;;15.00;99.90;;;;;;5128553;27;20039;-64
2024/02/17 12:32:45;;;;;;;9.48;1.42;;;14.80;99.90;;;;;;5124687;27;20118;-64
2024/02/17 12:35:18;;;;;;;11.52;1.88;;;14.80;99.90;;;;;;5127416;27;20035;-64
2024/02/17 12:37:48;;;;;;;10.48;1.42;;;14.80;99.90;;;;;;5127333;27;20042;-64
2024/02/17 12:40:15;;;;;;;9.68;1.70;;;14.60;99.90;;;;;;5128969;27;20482;-64
2024/02/17 12:42:48;;;;;;;7.45;1.33;;;14.70;99.90;;;;;;5128952;27;20034;-64
2024/02/17 12:45:25;;;;;;;8.73;1.77;;;14.40;99.90;;;;;;5127952;27;20117;-64
2024/02/17 12:47:51;;;;;;;7.85;1.65;;;14.30;99.90;;;;;;5127885;27;20042;-64
2024/02/17 12:50:20;;;;;;;7.95;1.88;;;14.30;99.90;;;;;;5127359;27;20050;-64
2024/02/17 12:52:46;;;;;;;6.55;1.42;;;14.10;99.90;;;;;;5129652;27;20031;-65